Time;durP1;ratioP1;P1;durP2;ratioP2;P2;SDS_P1;SDS_P2;PMS_P1;PMS_P2;Temp;Humidity;BMP_temperature;BMP_pressure;BME280_temperature;BME280_humidity;BME280_pressure;Samples;Min_cycle;Max_cycle;Signal;HPM_P1;HPM_P2
2023/03/09 00:02:04;;;;;;;1.30;0.98;;;;;;;12.41;48.35;100408.41;5038533;28;20033;-92
2023/03/09 00:04:30;;;;;;;1.70;1.20;;;;;;;12.42;48.54;100394.50;5038956;28;20409;-92
2023/03/09 00:06:56;;;;;;;0.90;0.85;;;;;;;12.41;48.85;100400.63;5038541;28;20028;-92
2023/03/09 00:09:21;;;;;;;1.60;1.00;;;;;;;12.49;48.58;100406.19;5055210;28;20123;-91
2023/03/09 00:11:47;;;;;;;6.82;1.50;;;;;;;12.45;48.18;100399.50;5038666;28;20025;-91
2023/03/09 00:14:13;;;;;;;2.30;1.40;;;;;;;12.47;47.98;100397.66;5040265;28;20123;-92
2023/03/09 00:16:39;;;;;;;2.00;1.20;;;;;;;12.45;48.09;100391.72;5041077;28;20067;-92
2023/03/09 00:19:05;;;;;;;0.95;0.70;;;;;;;12.52;47.65;100400.81;5054781;28;20536;-92
2023/03/09 00:21:36;;;;;;;2.63;1.15;;;;;;;12.60;47.58;100408.97;5054795;28;20032;-93
2023/03/09 00:24:05;;;;;;;0.68;0.63;;;;;;;12.61;47.38;100411.47;5056130;28;20035;-92
2023/03/09 00:26:32;;;;;;;2.25;0.90;;;;;;;12.53;47.80;100402.47;5072658;28;20037;-91
2023/03/09 00:28:57;;;;;;;1.08;0.95;;;;;;;12.59;47.96;100402.13;5055073;28;20067;-91
2023/03/09 00:31:22;;;;;;;1.25;0.95;;;;;;;12.60;47.76;100403.78;5054900;28;20032;-91
2023/03/09 00:33:48;;;;;;;1.50;1.00;;;;;;;12.56;47.71;100397.09;5054653;28;20032;-91
2023/03/09 00:36:14;;;;;;;1.50;0.90;;;;;;;12.57;47.90;100403.94;5054587;28;20117;-91
2023/03/09 00:38:40;;;;;;;4.10;1.65;;;;;;;12.61;47.91;100408.03;5037966;28;20028;-91
2023/03/09 00:41:05;;;;;;;0.85;0.75;;;;;;;12.62;48.14;100402.75;5037937;28;20055;-91
2023/03/09 00:43:31;;;;;;;1.48;1.20;;;;;;;12.63;47.94;100403.59;5054633;28;20040;-91
2023/03/09 00:45:56;;;;;;;1.80;1.20;;;;;;;12.56;48.24;100387.53;5037434;28;20513;-92
2023/03/09 00:48:22;;;;;;;4.60;1.70;;;;;;;12.65;47.96;100386.16;5054208;28;20031;-91
2023/03/09 00:50:47;;;;;;;1.27;0.93;;;;;;;12.63;47.59;100388.84;5054444;28;20043;-91
2023/03/09 00:53:13;;;;;;;1.40;0.93;;;;;;;12.57;47.88;100383.19;5054267;28;20066;-92
2023/03/09 00:55:38;;;;;;;5.45;1.35;;;;;;;12.58;47.77;100370.13;5037775;28;20025;-91
2023/03/09 00:58:04;;;;;;;3.03;0.90;;;;;;;12.60;48.00;100372.63;5054208;28;20029;-91
2023/03/09 01:00:32;;;;;;;1.00;0.80;;;;;;;12.63;47.59;100369.84;5037689;28;20024;-91
2023/03/09 01:02:59;;;;;;;1.15;0.60;;;;;;;12.53;48.23;100366.97;5038342;28;20082;-92
2023/03/09 01:05:24;;;;;;;1.15;0.73;;;;;;;12.56;48.26;100368.53;5037687;28;20077;-92
2023/03/09 01:07:49;;;;;;;1.08;0.93;;;;;;;12.52;47.72;100361.88;5037555;28;20033;-92
2023/03/09 01:10:15;;;;;;;1.70;1.08;;;;;;;12.45;48.15;100352.81;5037776;28;20025;-91
2023/03/09 01:12:42;;;;;;;1.20;0.73;;;;;;;12.37;48.12;100345.47;5053857;28;20107;-92
2023/03/09 01:15:07;;;;;;;1.40;0.75;;;;;;;12.35;48.41;100342.97;5037730;28;20055;-92
2023/03/09 01:17:33;;;;;;;1.65;0.85;;;;;;;12.42;48.25;100345.22;5037149;28;20018;-92
2023/03/09 01:19:58;;;;;;;2.28;1.05;;;;;;;12.44;47.90;100345.94;5037393;28;20028;-92
2023/03/09 01:22:24;;;;;;;1.63;1.23;;;;;;;12.43;48.16;100345.13;5070711;28;20032;-92
2023/03/09 01:24:49;;;;;;;3.45;1.27;;;;;;;12.37;48.29;100329.91;5054087;28;20082;-92
2023/03/09 01:27:15;;;;;;;1.38;0.70;;;;;;;12.42;48.19;100338.25;5037241;28;20017;-93
2023/03/09 01:29:40;;;;;;;5.25;1.30;;;;;;;12.30;48.62;100305.31;5037256;28;20035;-92
2023/03/09 01:32:06;;;;;;;1.20;0.90;;;;;;;12.38;48.76;100333.34;5053758;28;20028;-92
2023/03/09 01:34:31;;;;;;;0.70;0.63;;;;;;;12.24;48.80;100318.63;5037260;28;20032;-92
2023/03/09 01:36:57;;;;;;;4.57;1.48;;;;;;;12.26;48.86;100320.19;5053968;28;20780;-91
2023/03/09 01:39:22;;;;;;;1.58;0.85;;;;;;;12.27;49.76;100328.81;5037304;28;20031;-92
2023/03/09 01:41:48;;;;;;;1.73;0.80;;;;;;;12.16;50.02;100310.47;5053315;28;20044;-92
2023/03/09 01:44:13;;;;;;;2.97;1.42;;;;;;;12.15;50.64;100325.19;5037250;28;20063;-92
2023/03/09 01:46:50;;;;;;;1.92;1.00;;;;;;;12.06;50.56;100323.16;5053609;28;20032;-92
2023/03/09 01:49:35;;;;;;;1.50;0.90;;;;;;;12.05;49.73;100326.69;5037115;28;20031;-92
2023/03/09 01:52:12;;;;;;;1.90;1.08;;;;;;;11.96;51.06;100327.22;5071588;28;20016;-92
2023/03/09 01:54:58;;;;;;;0.73;0.63;;;;;;;11.88;49.84;100321.66;5038340;28;20034;-92
2023/03/09 01:57:33;;;;;;;1.25;0.85;;;;;;;11.92;50.12;100324.00;5038327;28;20021;-91
2023/03/09 02:00:07;;;;;;;1.15;0.80;;;;;;;11.86;49.54;100318.31;5074354;28;20028;-92
2023/03/09 02:02:35;;;;;;;2.03;1.10;;;;;;;11.91;49.20;100317.13;5041362;28;20028;-92
2023/03/09 02:05:03;;;;;;;1.98;0.98;;;;;;;11.87;49.32;100310.44;5057921;28;20544;-91
2023/03/09 02:07:29;;;;;;;1.60;1.10;;;;;;;11.97;49.29;100315.94;5041391;28;20035;-91
2023/03/09 02:10:20;;;;;;;2.75;1.23;;;;;;;11.89;49.26;100305.16;5040939;28;20103;-92
2023/03/09 02:12:47;;;;;;;1.83;1.38;;;;;;;11.86;49.90;100303.59;5043871;28;20024;-93
2023/03/09 02:15:12;;;;;;;6.22;1.55;;;;;;;12.00;49.86;100323.53;5040848;28;20043;-92
2023/03/09 02:17:38;;;;;;;1.77;0.90;;;;;;;11.96;49.65;100319.44;5057361;28;20028;-92
2023/03/09 02:20:15;;;;;;;0.77;0.70;;;;;;;11.96;49.37;100327.22;5057714;28;20101;-92
2023/03/09 02:22:41;;;;;;;1.10;0.82;;;;;;;11.96;49.55;100324.63;5073842;28;20032;-92
2023/03/09 02:25:12;;;;;;;2.17;0.95;;;;;;;11.99;49.55;100319.25;5040742;28;20032;-91
2023/03/09 02:27:38;;;;;;;0.85;0.70;;;;;;;12.04;49.20;100322.41;5073839;28;20032;-92
2023/03/09 02:30:04;;;;;;;1.30;0.98;;;;;;;11.99;49.70;100308.88;5040488;28;20512;-92
2023/03/09 02:32:30;;;;;;;0.95;0.70;;;;;;;11.96;49.87;100314.25;5056983;28;20032;-91
2023/03/09 02:34:56;;;;;;;1.02;0.77;;;;;;;12.04;50.04;100327.59;5057233;28;20107;-92
2023/03/09 02:37:32;;;;;;;1.23;0.88;;;;;;;12.00;49.79;100311.41;5057103;28;20036;-93
2023/03/09 02:40:22;;;;;;;2.75;1.10;;;;;;;12.04;49.57;100307.69;5041816;28;20063;-92
2023/03/09 02:42:48;;;;;;;1.25;0.90;;;;;;;11.88;50.25;100277.59;5058861;28;20048;-92
2023/03/09 02:45:15;;;;;;;0.77;0.60;;;;;;;12.01;49.85;100307.91;5056591;28;20032;-91
2023/03/09 02:47:40;;;;;;;3.15;1.10;;;;;;;11.93;49.95;100298.91;5056726;28;20028;-92
2023/03/09 02:50:07;;;;;;;0.93;0.70;;;;;;;12.03;50.06;100312.97;5039916;28;20082;-92
2023/03/09 02:52:32;;;;;;;1.10;0.95;;;;;;;12.00;50.31;100302.81;5056786;28;20067;-91
2023/03/09 02:54:58;;;;;;;1.73;1.13;;;;;;;11.98;51.17;100302.03;5056798;28;20082;-92
2023/03/09 02:57:23;;;;;;;1.15;0.90;;;;;;;11.98;51.31;100304.63;5039658;28;20037;-92
2023/03/09 02:59:49;;;;;;;0.75;0.75;;;;;;;11.90;51.38;100299.09;5040093;28;20029;-92
2023/03/09 03:02:14;;;;;;;1.73;1.17;;;;;;;11.77;51.16;100289.41;5056530;28;20662;-92
2023/03/09 03:04:40;;;;;;;3.15;1.50;;;;;;;11.81;51.05;100302.22;5057025;28;20063;-92
2023/03/09 03:07:05;;;;;;;5.22;1.88;;;;;;;11.78;50.99;100296.25;5056364;28;20028;-93
2023/03/09 03:09:30;;;;;;;1.50;1.20;;;;;;;11.85;51.14;100301.09;5039108;28;20028;-92
2023/03/09 03:11:56;;;;;;;2.13;1.10;;;;;;;11.84;50.68;100299.44;5039591;28;20044;-92
2023/03/09 03:14:22;;;;;;;4.28;1.48;;;;;;;11.90;50.86;100299.09;5039735;28;20027;-92
2023/03/09 03:16:47;;;;;;;2.17;1.38;;;;;;;11.82;51.40;100288.34;5039743;28;20020;-92
2023/03/09 03:19:13;;;;;;;1.77;0.80;;;;;;;12.02;50.94;100288.81;5039912;28;20032;-92
2023/03/09 03:21:38;;;;;;;0.68;0.63;;;;;;;12.02;51.00;100293.16;5039429;28;20528;-92
2023/03/09 03:24:04;;;;;;;2.17;0.95;;;;;;;11.76;51.44;100261.81;5039396;28;20025;-92
2023/03/09 03:26:29;;;;;;;1.38;1.25;;;;;;;11.94;51.08;100291.03;5072572;28;20032;-92
2023/03/09 03:28:55;;;;;;;4.13;1.73;;;;;;;11.89;51.35;100281.84;5056037;28;20044;-92
2023/03/09 03:31:20;;;;;;;0.90;0.77;;;;;;;11.93;51.59;100289.38;5039363;28;20024;-92
2023/03/09 03:33:46;;;;;;;1.23;0.80;;;;;;;11.87;51.58;100274.16;5039315;28;20028;-91
2023/03/09 03:36:11;;;;;;;2.05;0.90;;;;;;;11.91;51.64;100275.66;5056001;28;20033;-92
2023/03/09 03:38:37;;;;;;;0.60;0.60;;;;;;;11.98;51.36;100281.28;5055789;28;20036;-93
2023/03/09 03:41:03;;;;;;;1.15;0.82;;;;;;;11.98;51.43;100283.88;5055337;28;20052;-92
2023/03/09 03:43:28;;;;;;;0.80;0.70;;;;;;;12.01;51.43;100281.13;5039292;28;20021;-92
2023/03/09 03:45:54;;;;;;;1.85;0.85;;;;;;;11.96;51.33;100283.97;5039008;28;20664;-92
2023/03/09 03:48:19;;;;;;;0.65;0.65;;;;;;;11.93;51.74;100286.78;5055909;28;20032;-92
2023/03/09 03:50:45;;;;;;;0.90;0.68;;;;;;;11.96;51.69;100277.97;5038977;28;20032;-92
2023/03/09 03:53:10;;;;;;;0.68;0.57;;;;;;;11.85;51.55;100278.63;5055627;28;20482;-92
2023/03/09 03:55:36;;;;;;;5.65;3.20;;;;;;;11.85;51.79;100280.38;5055299;28;20505;-92
2023/03/09 03:58:02;;;;;;;5.57;2.90;;;;;;;11.86;51.85;100271.66;5055924;28;20505;-92
2023/03/09 04:00:27;;;;;;;59.63;24.25;;;;;;;11.87;52.03;100256.03;5055640;28;20029;-93
2023/03/09 04:02:53;;;;;;;12.45;5.35;;;;;;;12.07;52.40;100275.56;5055655;28;20032;-95
2023/03/09 04:05:18;;;;;;;4.57;3.08;;;;;;;12.13;51.84;100277.78;5055544;28;20028;-95
2023/03/09 04:07:44;;;;;;;2.70;1.30;;;;;;;12.16;52.08;100280.19;5055271;28;20127;-96
2023/03/09 04:10:10;;;;;;;1.95;1.10;;;;;;;12.10;51.34;100283.16;5071925;28;20086;-96
2023/03/09 04:12:35;;;;;;;3.15;2.03;;;;;;;12.04;52.28;100249.81;5055575;28;20029;-95
2023/03/09 04:15:00;;;;;;;1.25;1.10;;;;;;;12.24;51.99;100275.38;5073770;28;20032;-92
2023/03/09 04:17:26;;;;;;;1.33;0.98;;;;;;;12.30;51.12;100282.78;5057450;28;20024;-95
2023/03/09 04:19:51;;;;;;;1.38;0.98;;;;;;;12.30;51.30;100279.38;5070778;28;20032;-95
2023/03/09 04:22:17;;;;;;;3.95;1.30;;;;;;;12.29;51.88;100286.31;5101302;23;20054;-95
2023/03/09 04:24:42;;;;;;;2.20;1.20;;;;;;;12.34;51.53;100280.81;4982234;28;20104;-95
2023/03/09 04:27:08;;;;;;;1.85;0.77;;;;;;;12.57;52.12;100274.19;4992704;28;20026;-94
2023/03/09 04:29:33;;;;;;;1.02;0.80;;;;;;;12.54;51.21;100258.84;4976646;28;20042;-93
2023/03/09 04:31:58;;;;;;;0.82;0.60;;;;;;;12.39;51.13;100241.63;4992386;28;20026;-89
2023/03/09 04:34:24;;;;;;;1.25;1.15;;;;;;;12.63;51.83;100276.41;4991739;28;20034;-89
2023/03/09 04:36:49;;;;;;;1.20;1.02;;;;;;;12.71;50.77;100260.38;4975209;28;20415;-88
2023/03/09 04:39:17;;;;;;;1.33;0.75;;;;;;;12.83;50.18;100265.59;4973541;28;20030;-92
2023/03/09 04:41:43;;;;;;;0.88;0.63;;;;;;;12.84;50.14;100267.28;4991259;28;20037;-91
2023/03/09 04:44:08;;;;;;;1.92;0.77;;;;;;;12.85;50.66;100268.09;5007766;28;20455;-90
2023/03/09 04:46:34;;;;;;;0.85;0.70;;;;;;;12.80;50.67;100258.03;5008521;28;20035;-90
2023/03/09 04:48:59;;;;;;;1.10;0.47;;;;;;;12.68;50.40;100219.03;4992230;28;20026;-94
2023/03/09 04:51:25;;;;;;;1.15;0.60;;;;;;;12.91;50.33;100265.13;4992029;28;20485;-92
2023/03/09 04:53:50;;;;;;;0.80;0.80;;;;;;;12.82;50.88;100269.13;5007627;28;20089;-91
2023/03/09 04:56:16;;;;;;;7.57;0.70;;;;;;;12.96;50.90;100270.00;5010849;28;20030;-94
2023/03/09 04:58:41;;;;;;;1.10;0.80;;;;;;;12.97;50.81;100269.06;5007847;28;20030;-92
2023/03/09 05:01:07;;;;;;;0.55;0.55;;;;;;;12.97;51.24;100261.28;4999301;28;20042;-92
2023/03/09 05:06:03;;;;;;;2.47;1.27;;;;;;;12.70;51.37;100254.34;4989851;28;20050;-85
2023/03/09 05:08:29;;;;;;;1.52;0.80;;;;;;;12.75;51.75;100257.47;4974385;28;20026;-86
2023/03/09 05:10:54;;;;;;;0.85;0.40;;;;;;;12.76;52.06;100246.16;4958509;28;20404;-87
2023/03/09 05:13:19;;;;;;;2.88;1.35;;;;;;;12.86;51.22;100254.19;4972478;28;20038;-89
2023/03/09 05:15:45;;;;;;;1.17;0.93;;;;;;;12.92;51.42;100267.63;4952617;28;20022;-85
2023/03/09 05:18:11;;;;;;;1.75;1.35;;;;;;;12.87;51.57;100251.50;4954161;28;20428;-88
2023/03/09 05:20:37;;;;;;;3.42;1.40;;;;;;;13.06;51.02;100261.53;4971464;28;20128;-91
2023/03/09 05:23:03;;;;;;;3.25;1.83;;;;;;;12.93;51.84;100256.28;4964406;28;20397;-92
2023/03/09 05:25:29;;;;;;;4.30;1.77;;;;;;;13.01;52.23;100273.16;4937005;28;20649;-91
2023/03/09 05:27:54;;;;;;;2.60;1.17;;;;;;;12.94;51.81;100246.75;4964542;28;20031;-93
2023/03/09 05:30:20;;;;;;;1.35;0.93;;;;;;;12.75;52.22;100235.88;4973864;28;20050;-90
2023/03/09 05:32:46;;;;;;;1.70;1.08;;;;;;;12.86;52.66;100262.81;4963918;28;20022;-88
2023/03/09 05:35:12;;;;;;;1.48;1.00;;;;;;;12.85;52.82;100239.53;4984977;28;20504;-90
2023/03/09 05:37:38;;;;;;;1.42;1.05;;;;;;;12.76;52.70;100222.78;4954180;28;20503;-90
2023/03/09 05:40:08;;;;;;;2.58;1.90;;;;;;;13.13;52.48;100254.16;4974500;28;20098;-89
2023/03/09 05:42:33;;;;;;;2.85;1.30;;;;;;;13.19;52.49;100235.63;4974211;28;20488;-84
2023/03/09 05:45:02;;;;;;;2.55;1.77;;;;;;;13.33;51.94;100243.34;4985435;28;20047;-92
2023/03/09 05:47:27;;;;;;;8.32;2.75;;;;;;;13.49;51.32;100241.38;4967017;28;20476;-89
2023/03/09 05:49:52;;;;;;;2.30;1.25;;;;;;;13.60;51.10;100243.25;4957544;28;20033;-89
2023/03/09 05:52:18;;;;;;;2.80;1.13;;;;;;;13.67;51.11;100257.53;4958080;28;20430;-84
2023/03/09 05:54:43;;;;;;;2.25;1.38;;;;;;;13.71;50.56;100252.94;4960125;28;20054;-87
2023/03/09 05:57:12;;;;;;;1.52;1.20;;;;;;;13.90;50.46;100252.50;4956774;28;20061;-86
2023/03/09 05:59:38;;;;;;;2.53;1.38;;;;;;;13.81;49.92;100248.78;4955315;28;20023;-86
2023/03/09 06:02:03;;;;;;;2.58;1.00;;;;;;;13.93;50.23;100247.91;4937746;28;20095;-93
2023/03/09 06:04:29;;;;;;;1.95;1.25;;;;;;;13.92;50.01;100251.47;4944770;28;20061;-91
2023/03/09 06:06:54;;;;;;;1.45;0.80;;;;;;;13.98;50.12;100258.84;4959858;28;20042;-91
2023/03/09 06:09:20;;;;;;;3.35;1.40;;;;;;;14.04;49.42;100249.78;4936592;28;20477;-89
2023/03/09 06:11:45;;;;;;;1.08;0.85;;;;;;;14.04;50.41;100247.19;4955956;28;20023;-89
2023/03/09 06:14:11;;;;;;;1.35;1.23;;;;;;;14.17;50.25;100260.19;4947792;28;20115;-86
2023/03/09 06:16:36;;;;;;;1.92;0.98;;;;;;;14.13;50.13;100256.94;4971585;28;20026;-85
2023/03/09 06:19:02;;;;;;;2.67;1.17;;;;;;;14.23;49.26;100267.56;4971265;28;20484;-94
2023/03/09 06:21:27;;;;;;;3.58;1.92;;;;;;;14.32;49.16;100264.31;4978139;28;20034;-92
2023/03/09 06:23:54;;;;;;;1.58;1.35;;;;;;;14.39;49.57;100275.13;4957990;28;20030;-88
2023/03/09 06:26:20;;;;;;;3.38;2.13;;;;;;;14.41;49.80;100274.06;4961135;28;20464;-85
2023/03/09 06:28:46;;;;;;;2.17;1.45;;;;;;;14.41;49.24;100255.03;4967911;28;20089;-89
2023/03/09 06:31:12;;;;;;;2.17;1.48;;;;;;;14.54;48.92;100274.06;4973730;28;20169;-85
2023/03/09 06:33:39;;;;;;;1.75;1.02;;;;;;;14.55;49.55;100267.91;4949959;28;20105;-87
2023/03/09 06:36:05;;;;;;;2.85;1.65;;;;;;;14.67;49.47;100285.28;4949932;28;20069;-92
2023/03/09 06:38:30;;;;;;;2.35;1.58;;;;;;;14.77;49.20;100275.03;4961012;28;20416;-86
2023/03/09 06:40:56;;;;;;;1.95;1.50;;;;;;;14.62;48.39;100245.72;4972321;28;20484;-86
2023/03/09 06:43:21;;;;;;;2.70;1.75;;;;;;;14.97;49.38;100286.63;4956273;28;20508;-91
2023/03/09 06:45:47;;;;;;;4.10;2.10;;;;;;;14.96;48.45;100291.00;4993267;28;20389;-93
2023/03/09 06:48:13;;;;;;;5.45;3.05;;;;;;;14.99;48.19;100285.56;4942751;28;20034;-86
2023/03/09 06:50:38;;;;;;;4.65;2.35;;;;;;;14.96;47.88;100295.38;4967892;28;20105;-89
2023/03/09 06:53:04;;;;;;;2.60;1.92;;;;;;;14.78;48.60;100277.53;4970403;28;20034;-87
2023/03/09 06:55:29;;;;;;;5.40;2.40;;;;;;;14.76;49.18;100296.81;4948367;28;20055;-90
2023/03/09 06:57:55;;;;;;;5.22;2.90;;;;;;;14.70;49.55;100289.44;4972309;28;20436;-93
2023/03/09 07:00:21;;;;;;;8.68;3.47;;;;;;;14.54;49.49;100276.66;4944988;28;20026;-94
2023/03/09 07:02:46;;;;;;;5.53;2.70;;;;;;;14.39;49.08;100275.94;4986372;28;20027;-89
2023/03/09 07:05:12;;;;;;;4.95;3.13;;;;;;;14.25;50.29;100274.28;4970968;28;20046;-87
2023/03/09 07:07:37;;;;;;;4.65;3.08;;;;;;;14.22;50.26;100286.69;4967906;28;20035;-89
2023/03/09 07:10:04;;;;;;;6.68;3.97;;;;;;;13.98;50.74;100279.66;4971008;28;20330;-88
2023/03/09 07:12:29;;;;;;;6.18;4.18;;;;;;;13.73;51.25;100258.84;4954577;28;20041;-88
2023/03/09 07:14:55;;;;;;;5.32;3.63;;;;;;;13.99;51.03;100281.31;4972690;28;20078;-90
2023/03/09 07:17:20;;;;;;;4.68;2.97;;;;;;;14.09;51.18;100280.69;4958443;28;20030;-87
2023/03/09 07:19:46;;;;;;;9.15;4.90;;;;;;;14.09;51.11;100278.09;4938202;28;20554;-89
2023/03/09 07:22:12;;;;;;;10.68;3.22;;;;;;;14.19;51.16;100277.34;4978380;28;20031;-85
2023/03/09 07:24:37;;;;;;;5.32;3.15;;;;;;;14.30;51.28;100281.81;4959987;28;20484;-91
2023/03/09 07:27:03;;;;;;;12.88;5.57;;;;;;;14.41;51.04;100279.28;4966792;28;20027;-93
2023/03/09 07:29:28;;;;;;;6.05;3.55;;;;;;;14.54;50.84;100261.88;4959379;28;20031;-89
2023/03/09 07:31:54;;;;;;;23.98;3.85;;;;;;;14.65;49.57;100245.50;4984840;28;20062;-92
2023/03/09 07:34:19;;;;;;;4.95;3.15;;;;;;;15.17;49.71;100279.00;4971935;28;20030;-89
2023/03/09 07:36:46;;;;;;;6.07;3.05;;;;;;;15.34;49.67;100284.75;4963868;28;20022;-91
2023/03/09 07:39:11;;;;;;;5.72;2.60;;;;;;;15.57;48.68;100280.44;4944072;28;20027;-89
2023/03/09 07:41:37;;;;;;;2.55;1.60;;;;;;;15.72;48.27;100285.34;4958438;28;20085;-92
2023/03/09 07:44:02;;;;;;;2.53;1.88;;;;;;;16.06;47.50;100285.41;4971803;28;20481;-91
2023/03/09 07:46:28;;;;;;;6.10;2.80;;;;;;;16.40;49.63;100280.16;4969850;28;20168;-90
2023/03/09 07:48:53;;;;;;;11.52;2.60;;;;;;;16.69;49.88;100276.09;4977385;28;20389;-93
2023/03/09 07:51:19;;;;;;;57.10;32.97;;;;;;;16.77;45.57;100265.88;4951335;28;20035;-88
2023/03/09 07:53:44;;;;;;;8.75;4.60;;;;;;;17.11;44.90;100255.31;4980399;28;20026;-87
2023/03/09 07:56:10;;;;;;;13.25;8.93;;;;;;;17.26;43.45;100274.94;4948352;28;20129;-96
2023/03/09 07:58:38;;;;;;;5.93;3.17;;;;;;;17.37;42.98;100261.81;4967111;28;20420;-88
2023/03/09 08:01:05;;;;;;;3.03;1.95;;;;;;;17.42;42.42;100262.28;4972894;28;20031;-90
2023/03/09 08:03:30;;;;;;;5.32;1.52;;;;;;;17.46;42.00;100255.00;4971689;28;20041;-90
2023/03/09 08:05:55;;;;;;;5.80;2.38;;;;;;;17.51;41.78;100267.69;4983011;28;20050;-91
2023/03/09 08:08:22;;;;;;;3.78;2.38;;;;;;;17.61;41.91;100255.50;4951591;28;20466;-93
2023/03/09 08:10:52;;;;;;;4.70;2.08;;;;;;;17.68;42.66;100252.22;4964789;28;20031;-89
2023/03/09 08:13:17;;;;;;;3.03;1.85;;;;;;;17.82;42.24;100235.41;4949221;28;20026;-88
2023/03/09 08:15:43;;;;;;;3.80;1.60;;;;;;;17.91;41.83;100239.84;4940865;28;20488;-90
2023/03/09 08:18:08;;;;;;;3.05;1.30;;;;;;;18.09;42.40;100253.13;4966535;28;20029;-95
2023/03/09 08:20:35;;;;;;;1.85;1.20;;;;;;;18.10;41.39;100246.13;4956733;28;20035;-89
2023/03/09 08:23:01;;;;;;;3.28;1.50;;;;;;;18.05;41.79;100251.75;4972724;28;20034;-95
2023/03/09 08:25:27;;;;;;;7.45;1.80;;;;;;;17.84;40.88;100240.50;4974102;28;20030;-88
2023/03/09 08:27:53;;;;;;;3.22;1.30;;;;;;;17.92;40.94;100235.44;4969355;28;20041;-90
2023/03/09 08:30:20;;;;;;;2.90;1.42;;;;;;;17.93;41.03;100247.56;4969338;28;20031;-96
2023/03/09 08:32:49;;;;;;;4.65;2.35;;;;;;;17.91;40.45;100254.72;4989027;23;20051;-92
2023/03/09 08:35:16;;;;;;;3.42;2.40;;;;;;;17.93;41.06;100248.38;4962245;28;20076;-91
2023/03/09 08:37:41;;;;;;;1.13;0.95;;;;;;;17.88;40.46;100244.50;4970257;28;20401;-88
2023/03/09 08:40:08;;;;;;;3.20;1.83;;;;;;;17.89;40.79;100244.34;4972352;28;20030;-86
2023/03/09 08:42:33;;;;;;;3.17;1.83;;;;;;;17.98;40.23;100251.44;4956006;28;20043;-87
2023/03/09 08:44:59;;;;;;;3.38;1.63;;;;;;;17.94;40.03;100255.28;4969621;28;20389;-90
2023/03/09 08:47:25;;;;;;;2.90;2.10;;;;;;;17.89;40.20;100244.34;4970884;28;20031;-87
2023/03/09 08:49:50;;;;;;;4.70;2.22;;;;;;;17.78;39.74;100249.69;4968025;28;20031;-90
2023/03/09 08:52:16;;;;;;;1.92;1.00;;;;;;;17.75;40.07;100244.72;4971730;28;20117;-91
2023/03/09 08:54:42;;;;;;;2.28;1.55;;;;;;;17.95;40.45;100246.47;4968424;28;20030;-91
2023/03/09 08:57:08;;;;;;;4.70;1.52;;;;;;;18.05;39.78;100243.88;4943611;28;20521;-90
2023/03/09 08:59:34;;;;;;;3.03;1.65;;;;;;;18.20;40.37;100246.97;4963390;28;20042;-93
2023/03/09 09:02:00;;;;;;;4.00;1.38;;;;;;;18.38;38.93;100244.53;4967083;28;20031;-92
2023/03/09 09:04:25;;;;;;;3.13;1.90;;;;;;;18.43;39.26;100229.25;4958386;28;20041;-94
2023/03/09 09:06:51;;;;;;;1.83;1.17;;;;;;;18.46;39.39;100226.34;4944395;28;20057;-91
2023/03/09 09:09:16;;;;;;;5.38;1.23;;;;;;;18.59;39.78;100206.00;4949441;29;20027;-89
2023/03/09 09:11:41;;;;;;;2.38;1.50;;;;;;;18.84;38.75;100222.97;4954824;28;20114;-93
2023/03/09 09:14:07;;;;;;;5.00;1.45;;;;;;;18.91;38.89;100224.09;4947558;28;20402;-89
2023/03/09 09:16:33;;;;;;;3.65;1.58;;;;;;;19.14;39.24;100209.72;4930953;29;20035;-86
2023/03/09 09:18:58;;;;;;;2.58;1.27;;;;;;;19.11;38.10;100224.91;4953000;28;20409;-86
2023/03/09 09:21:24;;;;;;;1.90;1.50;;;;;;;18.96;38.07;100211.38;4950848;28;20031;-89
2023/03/09 09:23:49;;;;;;;3.47;1.40;;;;;;;18.81;38.09;100207.53;4960466;28;20535;-87
2023/03/09 09:26:15;;;;;;;1.60;1.13;;;;;;;18.83;38.41;100201.19;4963873;28;20142;-86
2023/03/09 09:28:41;;;;;;;1.58;1.13;;;;;;;18.92;38.19;100207.41;4952514;28;20032;-82
2023/03/09 09:31:07;;;;;;;1.35;0.75;;;;;;;18.75;38.08;100197.59;4935160;29;20053;-87
2023/03/09 09:33:33;;;;;;;2.40;1.42;;;;;;;18.86;38.24;100208.78;4952268;28;20110;-84
2023/03/09 09:36:00;;;;;;;1.60;1.10;;;;;;;18.91;37.92;100198.72;4944294;28;20088;-92
2023/03/09 09:38:26;;;;;;;2.20;1.38;;;;;;;18.90;37.92;100196.22;4962738;28;20038;-90
2023/03/09 09:40:53;;;;;;;1.63;0.95;;;;;;;18.87;37.68;100193.88;4950917;28;20606;-88
2023/03/09 09:43:19;;;;;;;2.20;1.40;;;;;;;18.95;38.62;100188.75;4955302;28;20046;-85
2023/03/09 09:45:44;;;;;;;1.88;1.63;;;;;;;18.97;37.95;100184.19;4971604;28;20481;-87
2023/03/09 09:48:15;;;;;;;1.23;0.77;;;;;;;18.89;38.23;100176.25;4967318;28;20027;-89
2023/03/09 09:50:49;;;;;;;1.75;1.20;;;;;;;18.90;37.69;100149.88;4961627;28;20038;-88
2023/03/09 09:53:29;;;;;;;2.95;1.70;;;;;;;19.09;38.15;100171.78;4959303;28;20027;-84
2023/03/09 09:55:55;;;;;;;1.50;1.00;;;;;;;19.10;38.30;100153.31;4937635;28;20058;-90
2023/03/09 09:58:23;;;;;;;1.75;0.93;;;;;;;19.60;36.56;100175.84;4927903;29;20031;-86
2023/03/09 10:00:52;;;;;;;1.73;1.20;;;;;;;19.98;36.44;100166.97;4946341;28;20040;-87
2023/03/09 10:03:32;;;;;;;4.95;1.00;;;;;;;20.08;34.98;100151.97;4952883;28;20051;-93
2023/03/09 10:06:33;;;;;;;2.15;0.88;;;;;;;20.19;35.36;100169.31;4941295;28;20038;-92
2023/03/09 10:09:06;;;;;;;1.25;0.85;;;;;;;20.05;35.46;100157.50;4903349;29;20433;-90
2023/03/09 10:11:52;;;;;;;2.90;1.65;;;;;;;19.91;36.09;100145.69;4930370;29;20122;-88
2023/03/09 10:14:23;;;;;;;2.72;1.25;;;;;;;19.96;35.24;100171.50;4942006;28;20477;-87
2023/03/09 10:16:56;;;;;;;1.93;1.40;;;;;;;19.85;36.46;100171.69;4949762;28;20095;-91
2023/03/09 10:19:31;;;;;;;3.70;2.20;;;;;;;19.82;35.67;100172.00;4968481;28;20099;-87
2023/03/09 10:22:24;;;;;;;3.40;1.52;;;;;;;19.81;36.44;100162.47;4946885;28;20030;-93
2023/03/09 10:24:53;;;;;;;2.65;1.48;;;;;;;19.75;36.30;100151.56;4952313;28;20122;-88
2023/03/09 10:27:34;;;;;;;3.58;1.50;;;;;;;19.74;36.74;100157.78;4937627;29;20114;-87
2023/03/09 10:30:30;;;;;;;4.78;1.27;;;;;;;19.71;35.76;100150.22;4948154;28;20062;-88
2023/03/09 10:33:04;;;;;;;9.45;1.90;;;;;;;19.80;35.89;100152.97;4947178;29;20048;-87
2023/03/09 10:35:35;;;;;;;2.33;1.40;;;;;;;19.87;36.47;100138.28;4947139;28;20035;-86
2023/03/09 10:38:01;;;;;;;2.35;1.33;;;;;;;19.93;35.36;100127.19;4962459;28;20031;-85
2023/03/09 10:40:34;;;;;;;3.67;1.58;;;;;;;19.77;35.93;100115.53;4944578;29;20099;-83
2023/03/09 10:43:00;;;;;;;7.47;1.60;;;;;;;20.00;35.47;100134.31;4968138;28;20074;-83
2023/03/09 10:45:29;;;;;;;1.92;1.17;;;;;;;20.03;35.39;100118.25;4938796;29;20028;-85
2023/03/09 10:47:56;;;;;;;2.88;1.50;;;;;;;20.11;35.40;100119.34;4949127;29;20086;-94
2023/03/09 10:50:31;;;;;;;3.45;1.85;;;;;;;20.15;35.23;100097.88;4965775;28;20031;-94
2023/03/09 10:52:57;;;;;;;3.00;1.75;;;;;;;20.28;35.51;100111.47;4955941;29;20053;-94
2023/03/09 10:55:25;;;;;;;1.67;1.23;;;;;;;20.33;35.01;100121.50;4933720;28;20485;-89
2023/03/09 10:57:55;;;;;;;3.10;1.42;;;;;;;20.37;35.16;100109.75;4954935;28;20031;-88
2023/03/09 11:00:21;;;;;;;3.45;1.58;;;;;;;20.10;35.22;100097.50;4948363;28;20038;-85
2023/03/09 11:02:55;;;;;;;12.10;5.75;;;;;;;20.22;35.14;100101.56;4965891;28;20027;-94
2023/03/09 11:05:21;;;;;;;4.15;2.17;;;;;;;20.21;35.36;100105.16;4955787;28;20023;-91
2023/03/09 11:07:55;;;;;;;3.00;1.58;;;;;;;20.23;34.94;100097.94;4965949;28;20552;-90
2023/03/09 11:10:28;;;;;;;1.10;0.70;;;;;;;20.25;34.60;100080.22;4952860;28;20126;-85
2023/03/09 11:12:54;;;;;;;1.90;1.10;;;;;;;20.21;34.52;100062.31;4950786;28;20027;-86
2023/03/09 11:15:28;;;;;;;5.63;1.40;;;;;;;20.28;34.52;100074.69;4969795;28;20114;-84
2023/03/09 11:17:53;;;;;;;2.22;1.13;;;;;;;20.31;35.12;100069.13;4976197;28;20038;-87
2023/03/09 11:20:20;;;;;;;2.30;1.63;;;;;;;20.45;34.32;100067.81;4966261;28;20035;-87
2023/03/09 11:23:15;;;;;;;2.75;1.52;;;;;;;20.71;34.71;100073.09;4960555;28;20038;-86
2023/03/09 11:26:00;;;;;;;2.20;1.10;;;;;;;20.78;34.21;100039.13;4980643;28;20023;-88
2023/03/09 11:28:47;;;;;;;2.25;1.23;;;;;;;20.94;33.98;100059.44;4981385;28;20118;-89